Argus, California
Current Conditions -  °F | °C
As of 1:56 AM on Saturday 20 Dec 2014 (Local Time) from KNID Reporting Station
Clear Clear  
Wind Chill: 31°   Ceiling: Unl
Heat Index: 36°   Visibility: 9mi
Dew Point: 35°   Wind: 6mph
Humidity: 97%   Direction: 220°SW
Pressure: 30.15"   Gusts: NA
Location:  35.6496°N, 117.375°W
Report Text: KNID 200956Z AUTO 22005KT 9SM CLR 02/02 A3015 RMK AO2 SLP218 T00220017 $
Loading
Personal Weather Stations






























Interactive Weather Map New forecast layout! Learn more

10-Day Weather Forecast

Advertisements
Track Severe Weather on mobile